sensor_id;sensor_type;location;lat;lon;timestamp;temperature;humidity
5786;DHT22;2919;48.630;9.000;2023-06-05T00:01:59;12.00;84.30
5786;DHT22;2919;48.630;9.000;2023-06-05T00:04:25;12.10;84.10
5786;DHT22;2919;48.630;9.000;2023-06-05T00:06:52;12.20;84.70
5786;DHT22;2919;48.630;9.000;2023-06-05T00:09:17;12.10;85.70
5786;DHT22;2919;48.630;9.000;2023-06-05T00:11:43;11.80;85.00
5786;DHT22;2919;48.630;9.000;2023-06-05T00:14:08;12.00;85.30
5786;DHT22;2919;48.630;9.000;2023-06-05T00:16:35;11.80;85.80
5786;DHT22;2919;48.630;9.000;2023-06-05T00:19:01;11.80;85.80
5786;DHT22;2919;48.630;9.000;2023-06-05T00:21:26;11.70;86.50
5786;DHT22;2919;48.630;9.000;2023-06-05T00:23:53;11.80;86.40
5786;DHT22;2919;48.630;9.000;2023-06-05T00:26:19;11.70;87.10
5786;DHT22;2919;48.630;9.000;2023-06-05T00:28:46;11.80;87.00
5786;DHT22;2919;48.630;9.000;2023-06-05T00:31:12;11.80;87.20
5786;DHT22;2919;48.630;9.000;2023-06-05T00:33:42;11.60;86.90
5786;DHT22;2919;48.630;9.000;2023-06-05T00:36:08;11.60;86.90
5786;DHT22;2919;48.630;9.000;2023-06-05T00:38:34;11.60;87.20
5786;DHT22;2919;48.630;9.000;2023-06-05T00:40:59;11.60;87.50
5786;DHT22;2919;48.630;9.000;2023-06-05T00:43:25;11.60;88.00
5786;DHT22;2919;48.630;9.000;2023-06-05T00:45:53;11.50;87.40
5786;DHT22;2919;48.630;9.000;2023-06-05T00:48:22;11.70;87.80
5786;DHT22;2919;48.630;9.000;2023-06-05T00:50:48;11.40;88.30
5786;DHT22;2919;48.630;9.000;2023-06-05T00:53:13;11.30;88.10
5786;DHT22;2919;48.630;9.000;2023-06-05T00:55:39;11.30;88.90
5786;DHT22;2919;48.630;9.000;2023-06-05T00:58:05;11.30;88.20
5786;DHT22;2919;48.630;9.000;2023-06-05T01:00:30;11.30;88.70
5786;DHT22;2919;48.630;9.000;2023-06-05T01:02:56;11.30;88.50
5786;DHT22;2919;48.630;9.000;2023-06-05T01:05:24;11.20;88.60
5786;DHT22;2919;48.630;9.000;2023-06-05T01:07:51;11.20;88.60
5786;DHT22;2919;48.630;9.000;2023-06-05T01:10:17;11.20;88.40
5786;DHT22;2919;48.630;9.000;2023-06-05T01:15:29;11.20;90.00
5786;DHT22;2919;48.630;9.000;2023-06-05T01:17:58;11.10;89.40
5786;DHT22;2919;48.630;9.000;2023-06-05T01:20:36;11.00;89.30
5786;DHT22;2919;48.630;9.000;2023-06-05T01:23:06;11.00;89.10
5786;DHT22;2919;48.630;9.000;2023-06-05T01:25:33;11.00;90.20
5786;DHT22;2919;48.630;9.000;2023-06-05T01:28:08;11.00;90.10
5786;DHT22;2919;48.630;9.000;2023-06-05T01:31:27;11.10;90.10
5786;DHT22;2919;48.630;9.000;2023-06-05T01:33:44;10.90;90.20
5786;DHT22;2919;48.630;9.000;2023-06-05T01:36:15;10.90;89.80
5786;DHT22;2919;48.630;9.000;2023-06-05T01:38:43;10.90;90.00
5786;DHT22;2919;48.630;9.000;2023-06-05T01:41:10;10.80;90.00
5786;DHT22;2919;48.630;9.000;2023-06-05T01:43:37;10.80;90.30
5786;DHT22;2919;48.630;9.000;2023-06-05T01:46:07;10.90;90.20
5786;DHT22;2919;48.630;9.000;2023-06-05T01:48:33;10.80;90.30
5786;DHT22;2919;48.630;9.000;2023-06-05T01:51:00;10.70;90.20
5786;DHT22;2919;48.630;9.000;2023-06-05T01:53:27;10.70;90.50
5786;DHT22;2919;48.630;9.000;2023-06-05T01:55:54;10.80;90.40
5786;DHT22;2919;48.630;9.000;2023-06-05T01:58:26;10.60;90.20
5786;DHT22;2919;48.630;9.000;2023-06-05T02:00:52;11.40;90.70
5786;DHT22;2919;48.630;9.000;2023-06-05T02:03:20;10.70;90.50
5786;DHT22;2919;48.630;9.000;2023-06-05T02:05:46;10.60;90.70
5786;DHT22;2919;48.630;9.000;2023-06-05T02:08:12;10.60;90.90
5786;DHT22;2919;48.630;9.000;2023-06-05T02:10:39;10.60;90.80
5786;DHT22;2919;48.630;9.000;2023-06-05T02:13:10;10.60;90.60
5786;DHT22;2919;48.630;9.000;2023-06-05T02:15:36;10.90;90.60
5786;DHT22;2919;48.630;9.000;2023-06-05T02:18:02;10.50;91.10
5786;DHT22;2919;48.630;9.000;2023-06-05T02:20:28;10.40;90.80
5786;DHT22;2919;48.630;9.000;2023-06-05T02:22:54;10.40;90.90
5786;DHT22;2919;48.630;9.000;2023-06-05T02:25:21;10.30;90.70
5786;DHT22;2919;48.630;9.000;2023-06-05T02:27:51;10.60;90.90
5786;DHT22;2919;48.630;9.000;2023-06-05T02:30:16;10.40;90.70
5786;DHT22;2919;48.630;9.000;2023-06-05T02:32:42;10.40;90.90
5786;DHT22;2919;48.630;9.000;2023-06-05T02:35:11;10.40;90.80
5786;DHT22;2919;48.630;9.000;2023-06-05T02:37:38;10.50;90.90
5786;DHT22;2919;48.630;9.000;2023-06-05T02:40:09;10.50;91.00
5786;DHT22;2919;48.630;9.000;2023-06-05T02:42:35;10.30;91.10
5786;DHT22;2919;48.630;9.000;2023-06-05T02:45:01;10.20;91.30
5786;DHT22;2919;48.630;9.000;2023-06-05T02:47:26;10.20;91.40
5786;DHT22;2919;48.630;9.000;2023-06-05T02:49:52;10.20;91.70
5786;DHT22;2919;48.630;9.000;2023-06-05T02:52:18;10.10;91.90
5786;DHT22;2919;48.630;9.000;2023-06-05T02:54:43;10.10;91.70
5786;DHT22;2919;48.630;9.000;2023-06-05T02:57:09;10.10;91.70
5786;DHT22;2919;48.630;9.000;2023-06-05T02:59:36;10.00;91.80
5786;DHT22;2919;48.630;9.000;2023-06-05T03:02:05;10.00;91.70
5786;DHT22;2919;48.630;9.000;2023-06-05T03:04:31;10.10;92.00
5786;DHT22;2919;48.630;9.000;2023-06-05T03:06:58;10.00;91.70
5786;DHT22;2919;48.630;9.000;2023-06-05T03:09:30;10.00;91.70
5786;DHT22;2919;48.630;9.000;2023-06-05T03:11:59;10.00;92.00
5786;DHT22;2919;48.630;9.000;2023-06-05T03:14:25;10.00;92.30
5786;DHT22;2919;48.630;9.000;2023-06-05T03:16:53;9.90;92.70
5786;DHT22;2919;48.630;9.000;2023-06-05T03:19:20;9.80;92.90
5786;DHT22;2919;48.630;9.000;2023-06-05T03:21:46;9.90;93.30
5786;DHT22;2919;48.630;9.000;2023-06-05T03:24:13;9.90;93.40
5786;DHT22;2919;48.630;9.000;2023-06-05T03:26:40;9.90;93.40
5786;DHT22;2919;48.630;9.000;2023-06-05T03:29:06;9.80;93.60
5786;DHT22;2919;48.630;9.000;2023-06-05T03:31:33;9.80;93.70
5786;DHT22;2919;48.630;9.000;2023-06-05T03:33:58;9.80;93.60
5786;DHT22;2919;48.630;9.000;2023-06-05T03:36:28;9.70;93.70
5786;DHT22;2919;48.630;9.000;2023-06-05T03:38:55;9.70;93.90
5786;DHT22;2919;48.630;9.000;2023-06-05T03:41:22;9.80;93.90
5786;DHT22;2919;48.630;9.000;2023-06-05T03:43:47;9.80;93.80
5786;DHT22;2919;48.630;9.000;2023-06-05T03:46:15;9.80;93.50
5786;DHT22;2919;48.630;9.000;2023-06-05T03:48:47;9.80;93.40
5786;DHT22;2919;48.630;9.000;2023-06-05T03:51:24;9.90;93.40
5786;DHT22;2919;48.630;9.000;2023-06-05T03:53:56;9.90;93.80
5786;DHT22;2919;48.630;9.000;2023-06-05T03:56:24;9.90;93.80
5786;DHT22;2919;48.630;9.000;2023-06-05T03:58:54;9.80;94.00
5786;DHT22;2919;48.630;9.000;2023-06-05T04:01:19;9.80;94.00
5786;DHT22;2919;48.630;9.000;2023-06-05T04:03:45;9.80;93.70
5786;DHT22;2919;48.630;9.000;2023-06-05T04:06:11;9.80;93.80
5786;DHT22;2919;48.630;9.000;2023-06-05T04:08:37;9.80;93.70
5786;DHT22;2919;48.630;9.000;2023-06-05T04:11:03;9.90;93.70
5786;DHT22;2919;48.630;9.000;2023-06-05T04:13:28;10.00;92.90
5786;DHT22;2919;48.630;9.000;2023-06-05T04:15:55;10.00;92.80
5786;DHT22;2919;48.630;9.000;2023-06-05T04:18:20;10.00;92.70
5786;DHT22;2919;48.630;9.000;2023-06-05T04:20:46;10.10;92.80
5786;DHT22;2919;48.630;9.000;2023-06-05T04:23:12;10.20;92.90
5786;DHT22;2919;48.630;9.000;2023-06-05T04:25:37;10.20;92.70
5786;DHT22;2919;48.630;9.000;2023-06-05T04:28:05;10.30;92.80
5786;DHT22;2919;48.630;9.000;2023-06-05T04:30:32;10.30;92.70
5786;DHT22;2919;48.630;9.000;2023-06-05T04:32:57;10.40;93.20
5786;DHT22;2919;48.630;9.000;2023-06-05T04:35:23;10.40;93.20
5786;DHT22;2919;48.630;9.000;2023-06-05T04:37:49;10.40;93.10
5786;DHT22;2919;48.630;9.000;2023-06-05T04:40:16;10.50;93.20
5786;DHT22;2919;48.630;9.000;2023-06-05T04:42:43;10.60;93.20
5786;DHT22;2919;48.630;9.000;2023-06-05T04:45:09;10.80;93.10
5786;DHT22;2919;48.630;9.000;2023-06-05T04:47:35;10.70;93.00
5786;DHT22;2919;48.630;9.000;2023-06-05T04:50:03;10.80;92.80
5786;DHT22;2919;48.630;9.000;2023-06-05T04:52:30;10.90;93.10
5786;DHT22;2919;48.630;9.000;2023-06-05T04:54:56;10.90;93.40
5786;DHT22;2919;48.630;9.000;2023-06-05T04:57:23;11.00;93.20
5786;DHT22;2919;48.630;9.000;2023-06-05T04:59:51;11.00;93.20
5786;DHT22;2919;48.630;9.000;2023-06-05T05:02:17;11.10;93.50
5786;DHT22;2919;48.630;9.000;2023-06-05T05:04:43;11.20;93.00
5786;DHT22;2919;48.630;9.000;2023-06-05T05:07:09;11.30;92.70
5786;DHT22;2919;48.630;9.000;2023-06-05T05:09:40;11.40;92.50
5786;DHT22;2919;48.630;9.000;2023-06-05T05:12:06;11.40;92.20
5786;DHT22;2919;48.630;9.000;2023-06-05T05:14:32;11.40;92.30
5786;DHT22;2919;48.630;9.000;2023-06-05T05:16:58;11.50;92.40
5786;DHT22;2919;48.630;9.000;2023-06-05T05:19:24;11.70;92.70
5786;DHT22;2919;48.630;9.000;2023-06-05T05:21:50;11.70;92.60
5786;DHT22;2919;48.630;9.000;2023-06-05T05:24:15;11.80;92.40
5786;DHT22;2919;48.630;9.000;2023-06-05T05:26:41;11.80;92.30
5786;DHT22;2919;48.630;9.000;2023-06-05T05:29:07;11.80;92.10
5786;DHT22;2919;48.630;9.000;2023-06-05T05:31:33;12.00;91.30
5786;DHT22;2919;48.630;9.000;2023-06-05T05:33:59;12.20;91.50
5786;DHT22;2919;48.630;9.000;2023-06-05T05:36:26;12.20;91.50
5786;DHT22;2919;48.630;9.000;2023-06-05T05:38:54;12.30;91.30
5786;DHT22;2919;48.630;9.000;2023-06-05T05:41:20;12.30;90.60
5786;DHT22;2919;48.630;9.000;2023-06-05T05:43:46;12.30;90.70
5786;DHT22;2919;48.630;9.000;2023-06-05T05:46:12;12.50;90.70
5786;DHT22;2919;48.630;9.000;2023-06-05T05:48:37;12.60;90.90
5786;DHT22;2919;48.630;9.000;2023-06-05T05:51:05;12.60;90.20
5786;DHT22;2919;48.630;9.000;2023-06-05T05:53:31;12.80;90.20
5786;DHT22;2919;48.630;9.000;2023-06-05T05:55:57;12.90;90.10
5786;DHT22;2919;48.630;9.000;2023-06-05T05:58:22;13.00;89.50
5786;DHT22;2919;48.630;9.000;2023-06-05T06:00:48;13.10;88.30
5786;DHT22;2919;48.630;9.000;2023-06-05T06:03:15;13.20;86.80
5786;DHT22;2919;48.630;9.000;2023-06-05T06:05:41;13.30;86.20
5786;DHT22;2919;48.630;9.000;2023-06-05T06:08:07;13.40;86.00
5786;DHT22;2919;48.630;9.000;2023-06-05T06:10:33;13.50;87.10
5786;DHT22;2919;48.630;9.000;2023-06-05T06:12:59;13.60;86.60
5786;DHT22;2919;48.630;9.000;2023-06-05T06:15:25;13.70;87.50
5786;DHT22;2919;48.630;9.000;2023-06-05T06:17:52;13.80;86.70
5786;DHT22;2919;48.630;9.000;2023-06-05T06:20:18;13.90;87.70
5786;DHT22;2919;48.630;9.000;2023-06-05T06:22:43;14.10;87.00
5786;DHT22;2919;48.630;9.000;2023-06-05T06:25:11;14.20;83.40
5786;DHT22;2919;48.630;9.000;2023-06-05T06:27:37;14.30;81.80
5786;DHT22;2919;48.630;9.000;2023-06-05T06:30:04;14.40;84.10
5786;DHT22;2919;48.630;9.000;2023-06-05T06:32:30;14.50;84.40
5786;DHT22;2919;48.630;9.000;2023-06-05T06:34:56;14.70;81.90
5786;DHT22;2919;48.630;9.000;2023-06-05T06:37:22;14.80;76.10
5786;DHT22;2919;48.630;9.000;2023-06-05T06:39:48;14.90;74.50
5786;DHT22;2919;48.630;9.000;2023-06-05T06:42:14;15.10;74.70
5786;DHT22;2919;48.630;9.000;2023-06-05T06:44:40;15.20;74.60
5786;DHT22;2919;48.630;9.000;2023-06-05T06:47:06;15.40;75.50
5786;DHT22;2919;48.630;9.000;2023-06-05T06:49:33;15.70;72.50
5786;DHT22;2919;48.630;9.000;2023-06-05T06:52:00;15.80;71.70
5786;DHT22;2919;48.630;9.000;2023-06-05T06:54:25;15.90;71.70
5786;DHT22;2919;48.630;9.000;2023-06-05T06:56:54;16.00;72.20
5786;DHT22;2919;48.630;9.000;2023-06-05T06:59:20;16.10;71.80
5786;DHT22;2919;48.630;9.000;2023-06-05T07:01:47;16.20;72.00
5786;DHT22;2919;48.630;9.000;2023-06-05T07:04:16;16.40;71.20
5786;DHT22;2919;48.630;9.000;2023-06-05T07:06:48;16.60;71.60
5786;DHT22;2919;48.630;9.000;2023-06-05T07:09:13;16.80;70.80
5786;DHT22;2919;48.630;9.000;2023-06-05T07:11:39;17.00;71.90
5786;DHT22;2919;48.630;9.000;2023-06-05T07:14:05;17.30;71.40
5786;DHT22;2919;48.630;9.000;2023-06-05T07:16:32;17.40;70.30
5786;DHT22;2919;48.630;9.000;2023-06-05T07:18:58;17.50;70.40
5786;DHT22;2919;48.630;9.000;2023-06-05T07:21:24;17.80;69.40
5786;DHT22;2919;48.630;9.000;2023-06-05T07:23:50;18.10;70.50
5786;DHT22;2919;48.630;9.000;2023-06-05T07:26:20;18.50;70.20
5786;DHT22;2919;48.630;9.000;2023-06-05T07:28:47;18.90;68.40
5786;DHT22;2919;48.630;9.000;2023-06-05T07:31:13;19.00;68.80
5786;DHT22;2919;48.630;9.000;2023-06-05T07:33:39;19.30;67.60
5786;DHT22;2919;48.630;9.000;2023-06-05T07:36:06;19.80;67.10
5786;DHT22;2919;48.630;9.000;2023-06-05T07:38:33;20.30;66.30
5786;DHT22;2919;48.630;9.000;2023-06-05T07:40:58;20.90;64.00
5786;DHT22;2919;48.630;9.000;2023-06-05T07:43:27;21.50;62.70
5786;DHT22;2919;48.630;9.000;2023-06-05T07:45:53;23.00;59.10
5786;DHT22;2919;48.630;9.000;2023-06-05T07:48:19;24.00;57.60
5786;DHT22;2919;48.630;9.000;2023-06-05T07:50:44;24.00;57.90
5786;DHT22;2919;48.630;9.000;2023-06-05T07:53:10;24.30;56.70
5786;DHT22;2919;48.630;9.000;2023-06-05T07:55:36;24.10;56.30
5786;DHT22;2919;48.630;9.000;2023-06-05T07:58:02;24.10;57.40
5786;DHT22;2919;48.630;9.000;2023-06-05T08:00:27;24.20;56.90
5786;DHT22;2919;48.630;9.000;2023-06-05T08:02:53;25.30;55.30
5786;DHT22;2919;48.630;9.000;2023-06-05T08:05:19;25.80;53.80
5786;DHT22;2919;48.630;9.000;2023-06-05T08:07:45;24.70;55.40
5786;DHT22;2919;48.630;9.000;2023-06-05T08:10:12;24.60;55.60
5786;DHT22;2919;48.630;9.000;2023-06-05T08:12:38;25.30;54.80
5786;DHT22;2919;48.630;9.000;2023-06-05T08:15:05;25.50;53.60
5786;DHT22;2919;48.630;9.000;2023-06-05T08:17:31;24.60;55.30
5786;DHT22;2919;48.630;9.000;2023-06-05T08:19:57;24.60;56.20
5786;DHT22;2919;48.630;9.000;2023-06-05T08:22:22;25.30;56.50
5786;DHT22;2919;48.630;9.000;2023-06-05T08:24:48;26.10;54.30
5786;DHT22;2919;48.630;9.000;2023-06-05T08:27:17;26.20;53.70
5786;DHT22;2919;48.630;9.000;2023-06-05T08:29:42;25.50;54.80
5786;DHT22;2919;48.630;9.000;2023-06-05T08:32:08;25.40;55.50
5786;DHT22;2919;48.630;9.000;2023-06-05T08:34:34;25.20;56.20
5786;DHT22;2919;48.630;9.000;2023-06-05T08:37:00;25.30;56.90
5786;DHT22;2919;48.630;9.000;2023-06-05T08:39:26;26.30;54.50
5786;DHT22;2919;48.630;9.000;2023-06-05T08:41:57;26.10;54.60
5786;DHT22;2919;48.630;9.000;2023-06-05T08:44:29;25.90;56.50
5786;DHT22;2919;48.630;9.000;2023-06-05T08:47:01;26.00;55.80
5786;DHT22;2919;48.630;9.000;2023-06-05T08:49:27;26.20;55.00
5786;DHT22;2919;48.630;9.000;2023-06-05T08:52:00;26.00;55.50
5786;DHT22;2919;48.630;9.000;2023-06-05T08:54:32;25.90;56.80
5786;DHT22;2919;48.630;9.000;2023-06-05T08:57:00;26.00;57.20
5786;DHT22;2919;48.630;9.000;2023-06-05T08:59:28;26.20;56.80
5786;DHT22;2919;48.630;9.000;2023-06-05T09:01:54;26.00;58.90
5786;DHT22;2919;48.630;9.000;2023-06-05T09:04:19;25.80;58.50
5786;DHT22;2919;48.630;9.000;2023-06-05T09:06:48;25.90;58.80
5786;DHT22;2919;48.630;9.000;2023-06-05T09:09:17;26.30;56.80
5786;DHT22;2919;48.630;9.000;2023-06-05T09:11:42;26.30;57.00
5786;DHT22;2919;48.630;9.000;2023-06-05T09:14:08;26.50;57.70
5786;DHT22;2919;48.630;9.000;2023-06-05T09:19:03;26.10;58.50
5786;DHT22;2919;48.630;9.000;2023-06-05T09:21:29;26.00;58.50
5786;DHT22;2919;48.630;9.000;2023-06-05T09:24:12;25.70;58.80
5786;DHT22;2919;48.630;9.000;2023-06-05T09:27:02;26.00;58.30
5786;DHT22;2919;48.630;9.000;2023-06-05T09:31:56;25.80;59.10
5786;DHT22;2919;48.630;9.000;2023-06-05T09:36:52;25.50;59.90
5786;DHT22;2919;48.630;9.000;2023-06-05T09:39:20;25.60;59.30
5786;DHT22;2919;48.630;9.000;2023-06-05T09:41:48;25.40;60.00
5786;DHT22;2919;48.630;9.000;2023-06-05T09:44:15;25.20;61.40
5786;DHT22;2919;48.630;9.000;2023-06-05T09:49:18;26.00;58.50
5786;DHT22;2919;48.630;9.000;2023-06-05T09:51:43;25.70;58.50
5786;DHT22;2919;48.630;9.000;2023-06-05T09:54:11;25.60;59.10
5786;DHT22;2919;48.630;9.000;2023-06-05T09:56:39;25.80;60.80
5786;DHT22;2919;48.630;9.000;2023-06-05T09:59:08;25.70;61.40
5786;DHT22;2919;48.630;9.000;2023-06-05T10:01:36;25.10;60.40
5786;DHT22;2919;48.630;9.000;2023-06-05T10:04:09;25.20;60.90
5786;DHT22;2919;48.630;9.000;2023-06-05T10:06:36;25.30;59.60
5786;DHT22;2919;48.630;9.000;2023-06-05T10:09:03;25.70;58.20
5786;DHT22;2919;48.630;9.000;2023-06-05T10:11:29;25.50;59.80
5786;DHT22;2919;48.630;9.000;2023-06-05T10:13:56;25.80;58.20
5786;DHT22;2919;48.630;9.000;2023-06-05T10:16:26;25.00;59.10
5786;DHT22;2919;48.630;9.000;2023-06-05T10:18:55;24.90;58.30
5786;DHT22;2919;48.630;9.000;2023-06-05T10:21:22;24.80;58.10
5786;DHT22;2919;48.630;9.000;2023-06-05T10:24:10;24.80;59.40
5786;DHT22;2919;48.630;9.000;2023-06-05T10:40:51;24.80;58.40
5786;DHT22;2919;48.630;9.000;2023-06-05T10:43:45;24.60;59.10
5786;DHT22;2919;48.630;9.000;2023-06-05T10:46:40;24.40;59.10
5786;DHT22;2919;48.630;9.000;2023-06-05T10:49:23;24.00;59.50
5786;DHT22;2919;48.630;9.000;2023-06-05T10:51:50;24.10;59.10
5786;DHT22;2919;48.630;9.000;2023-06-05T10:59:22;24.60;59.00
5786;DHT22;2919;48.630;9.000;2023-06-05T11:07:19;24.80;59.20
5786;DHT22;2919;48.630;9.000;2023-06-05T11:15:10;24.90;57.70
5786;DHT22;2919;48.630;9.000;2023-06-05T11:17:39;24.40;58.00
5786;DHT22;2919;48.630;9.000;2023-06-05T11:25:24;24.60;58.80
5786;DHT22;2919;48.630;9.000;2023-06-05T11:27:54;24.80;56.90
5786;DHT22;2919;48.630;9.000;2023-06-05T11:30:25;24.80;57.60
5786;DHT22;2919;48.630;9.000;2023-06-05T11:32:54;24.60;56.50
5786;DHT22;2919;48.630;9.000;2023-06-05T11:35:25;24.30;55.70
5786;DHT22;2919;48.630;9.000;2023-06-05T11:38:10;24.20;55.60
5786;DHT22;2919;48.630;9.000;2023-06-05T11:40:37;23.90;56.10
5786;DHT22;2919;48.630;9.000;2023-06-05T11:43:04;23.80;56.40
5786;DHT22;2919;48.630;9.000;2023-06-05T11:45:32;24.10;55.80
5786;DHT22;2919;48.630;9.000;2023-06-05T11:48:08;24.40;58.00
5786;DHT22;2919;48.630;9.000;2023-06-05T11:50:38;24.80;55.90
5786;DHT22;2919;48.630;9.000;2023-06-05T11:53:07;24.90;54.70
5786;DHT22;2919;48.630;9.000;2023-06-05T11:55:34;24.80;53.90
5786;DHT22;2919;48.630;9.000;2023-06-05T11:58:29;24.60;54.60
5786;DHT22;2919;48.630;9.000;2023-06-05T12:03:38;24.60;53.90
5786;DHT22;2919;48.630;9.000;2023-06-05T12:06:04;25.10;54.20
5786;DHT22;2919;48.630;9.000;2023-06-05T12:08:32;25.30;54.10
5786;DHT22;2919;48.630;9.000;2023-06-05T12:10:59;25.00;54.00
5786;DHT22;2919;48.630;9.000;2023-06-05T12:13:47;24.80;54.40
5786;DHT22;2919;48.630;9.000;2023-06-05T12:16:14;24.70;55.40
5786;DHT22;2919;48.630;9.000;2023-06-05T12:18:40;24.90;53.50
5786;DHT22;2919;48.630;9.000;2023-06-05T12:21:05;25.00;54.20
5786;DHT22;2919;48.630;9.000;2023-06-05T12:23:32;25.20;52.10
5786;DHT22;2919;48.630;9.000;2023-06-05T12:26:02;25.40;51.70
5786;DHT22;2919;48.630;9.000;2023-06-05T12:28:29;25.40;51.60
5786;DHT22;2919;48.630;9.000;2023-06-05T12:30:55;25.40;51.70
5786;DHT22;2919;48.630;9.000;2023-06-05T12:33:22;25.70;50.50
5786;DHT22;2919;48.630;9.000;2023-06-05T12:36:08;25.80;51.40
5786;DHT22;2919;48.630;9.000;2023-06-05T12:38:41;25.80;51.00
5786;DHT22;2919;48.630;9.000;2023-06-05T12:41:08;25.70;51.60
5786;DHT22;2919;48.630;9.000;2023-06-05T12:43:34;25.90;50.10
5786;DHT22;2919;48.630;9.000;2023-06-05T12:46:00;25.70;49.30
5786;DHT22;2919;48.630;9.000;2023-06-05T12:48:26;25.50;50.60
5786;DHT22;2919;48.630;9.000;2023-06-05T12:50:52;25.60;51.40
5786;DHT22;2919;48.630;9.000;2023-06-05T12:53:18;26.00;50.50
5786;DHT22;2919;48.630;9.000;2023-06-05T12:55:44;26.20;47.70
5786;DHT22;2919;48.630;9.000;2023-06-05T12:58:10;26.10;47.80
5786;DHT22;2919;48.630;9.000;2023-06-05T13:00:35;26.00;48.20
5786;DHT22;2919;48.630;9.000;2023-06-05T13:03:01;25.80;49.40
5786;DHT22;2919;48.630;9.000;2023-06-05T13:05:28;26.00;49.00
5786;DHT22;2919;48.630;9.000;2023-06-05T13:07:54;25.80;49.70
5786;DHT22;2919;48.630;9.000;2023-06-05T13:10:20;25.90;49.40
5786;DHT22;2919;48.630;9.000;2023-06-05T13:12:46;25.90;48.40
5786;DHT22;2919;48.630;9.000;2023-06-05T13:15:12;25.80;48.50
5786;DHT22;2919;48.630;9.000;2023-06-05T13:17:38;25.90;47.80
5786;DHT22;2919;48.630;9.000;2023-06-05T13:20:05;25.90;47.50
5786;DHT22;2919;48.630;9.000;2023-06-05T13:22:34;25.70;48.80
5786;DHT22;2919;48.630;9.000;2023-06-05T13:25:00;25.70;48.00
5786;DHT22;2919;48.630;9.000;2023-06-05T13:27:26;25.60;48.50
5786;DHT22;2919;48.630;9.000;2023-06-05T13:29:52;25.80;48.00
5786;DHT22;2919;48.630;9.000;2023-06-05T13:32:17;26.00;47.40
5786;DHT22;2919;48.630;9.000;2023-06-05T13:34:43;26.40;47.70
5786;DHT22;2919;48.630;9.000;2023-06-05T13:37:08;26.50;46.00
5786;DHT22;2919;48.630;9.000;2023-06-05T13:39:34;26.20;46.30
5786;DHT22;2919;48.630;9.000;2023-06-05T13:41:59;26.10;47.10
5786;DHT22;2919;48.630;9.000;2023-06-05T13:44:27;25.90;47.40
5786;DHT22;2919;48.630;9.000;2023-06-05T13:46:53;25.60;54.10
5786;DHT22;2919;48.630;9.000;2023-06-05T13:49:19;25.20;55.50
5786;DHT22;2919;48.630;9.000;2023-06-05T13:51:44;25.10;52.00
5786;DHT22;2919;48.630;9.000;2023-06-05T13:54:10;25.10;52.30
5786;DHT22;2919;48.630;9.000;2023-06-05T13:56:36;24.80;51.70
5786;DHT22;2919;48.630;9.000;2023-06-05T13:59:01;24.60;49.30
5786;DHT22;2919;48.630;9.000;2023-06-05T14:01:27;24.30;49.90
5786;DHT22;2919;48.630;9.000;2023-06-05T14:03:52;24.10;49.20
5786;DHT22;2919;48.630;9.000;2023-06-05T14:06:18;24.20;54.50
5786;DHT22;2919;48.630;9.000;2023-06-05T14:08:45;24.20;51.50
5786;DHT22;2919;48.630;9.000;2023-06-05T14:11:11;24.60;49.10
5786;DHT22;2919;48.630;9.000;2023-06-05T14:13:36;24.60;49.60
5786;DHT22;2919;48.630;9.000;2023-06-05T14:16:03;24.90;49.00
5786;DHT22;2919;48.630;9.000;2023-06-05T14:18:29;25.00;48.70
5786;DHT22;2919;48.630;9.000;2023-06-05T14:20:55;25.30;47.10
5786;DHT22;2919;48.630;9.000;2023-06-05T14:23:21;25.50;45.60
5786;DHT22;2919;48.630;9.000;2023-06-05T14:25:49;25.70;46.10
5786;DHT22;2919;48.630;9.000;2023-06-05T14:28:15;25.60;46.40
5786;DHT22;2919;48.630;9.000;2023-06-05T14:30:40;25.20;49.30
5786;DHT22;2919;48.630;9.000;2023-06-05T14:33:06;24.90;48.00
5786;DHT22;2919;48.630;9.000;2023-06-05T14:35:32;24.70;47.50
5786;DHT22;2919;48.630;9.000;2023-06-05T14:37:57;24.70;48.80
5786;DHT22;2919;48.630;9.000;2023-06-05T14:40:23;24.70;48.20
5786;DHT22;2919;48.630;9.000;2023-06-05T14:42:52;24.80;48.60
5786;DHT22;2919;48.630;9.000;2023-06-05T14:45:18;24.70;48.80
5786;DHT22;2919;48.630;9.000;2023-06-05T14:47:43;24.80;48.90
5786;DHT22;2919;48.630;9.000;2023-06-05T14:50:10;24.80;50.50
5786;DHT22;2919;48.630;9.000;2023-06-05T14:52:36;24.70;51.40
5786;DHT22;2919;48.630;9.000;2023-06-05T14:55:02;24.80;53.10
5786;DHT22;2919;48.630;9.000;2023-06-05T14:57:28;25.00;48.40
5786;DHT22;2919;48.630;9.000;2023-06-05T14:59:54;25.00;48.10
5786;DHT22;2919;48.630;9.000;2023-06-05T15:02:21;25.00;48.70
5786;DHT22;2919;48.630;9.000;2023-06-05T15:04:48;24.80;49.20
5786;DHT22;2919;48.630;9.000;2023-06-05T15:07:18;24.80;48.00
5786;DHT22;2919;48.630;9.000;2023-06-05T15:09:45;25.00;47.80
5786;DHT22;2919;48.630;9.000;2023-06-05T15:12:11;25.10;49.30
5786;DHT22;2919;48.630;9.000;2023-06-05T15:14:37;24.70;48.50
5786;DHT22;2919;48.630;9.000;2023-06-05T15:17:02;24.80;49.70
5786;DHT22;2919;48.630;9.000;2023-06-05T15:19:28;24.80;48.90
5786;DHT22;2919;48.630;9.000;2023-06-05T15:21:54;24.90;50.70
5786;DHT22;2919;48.630;9.000;2023-06-05T15:24:19;24.90;51.00
5786;DHT22;2919;48.630;9.000;2023-06-05T15:26:45;24.90;49.30
5786;DHT22;2919;48.630;9.000;2023-06-05T15:29:11;24.90;49.40
5786;DHT22;2919;48.630;9.000;2023-06-05T15:31:37;24.80;49.20
5786;DHT22;2919;48.630;9.000;2023-06-05T15:34:02;24.80;49.20
5786;DHT22;2919;48.630;9.000;2023-06-05T15:36:28;24.70;49.50
5786;DHT22;2919;48.630;9.000;2023-06-05T15:38:53;24.40;49.70
5786;DHT22;2919;48.630;9.000;2023-06-05T15:41:21;24.50;49.90
5786;DHT22;2919;48.630;9.000;2023-06-05T15:43:48;24.40;51.10
5786;DHT22;2919;48.630;9.000;2023-06-05T15:46:14;24.40;50.30
5786;DHT22;2919;48.630;9.000;2023-06-05T15:48:40;24.40;50.60
5786;DHT22;2919;48.630;9.000;2023-06-05T15:51:06;24.40;50.00
5786;DHT22;2919;48.630;9.000;2023-06-05T15:53:32;24.40;50.00
5786;DHT22;2919;48.630;9.000;2023-06-05T15:55:57;24.30;50.00
5786;DHT22;2919;48.630;9.000;2023-06-05T15:58:23;24.40;50.50
5786;DHT22;2919;48.630;9.000;2023-06-05T16:00:48;24.20;49.60
5786;DHT22;2919;48.630;9.000;2023-06-05T16:03:14;24.10;49.50
5786;DHT22;2919;48.630;9.000;2023-06-05T16:05:40;24.30;50.30
5786;DHT22;2919;48.630;9.000;2023-06-05T16:08:06;24.20;49.40
5786;DHT22;2919;48.630;9.000;2023-06-05T16:10:32;24.40;49.10
5786;DHT22;2919;48.630;9.000;2023-06-05T16:12:57;24.30;49.80
5786;DHT22;2919;48.630;9.000;2023-06-05T16:15:23;24.20;49.40
5786;DHT22;2919;48.630;9.000;2023-06-05T16:17:48;24.40;48.50
5786;DHT22;2919;48.630;9.000;2023-06-05T16:20:16;24.10;50.20
5786;DHT22;2919;48.630;9.000;2023-06-05T16:22:42;24.00;49.20
5786;DHT22;2919;48.630;9.000;2023-06-05T16:25:09;24.00;50.20
5786;DHT22;2919;48.630;9.000;2023-06-05T16:27:35;23.80;49.50
5786;DHT22;2919;48.630;9.000;2023-06-05T16:30:00;23.90;50.00
5786;DHT22;2919;48.630;9.000;2023-06-05T16:32:26;23.90;49.20
5786;DHT22;2919;48.630;9.000;2023-06-05T16:34:52;23.80;50.50
5786;DHT22;2919;48.630;9.000;2023-06-05T16:37:19;23.70;50.30
5786;DHT22;2919;48.630;9.000;2023-06-05T16:39:44;23.70;49.10
5786;DHT22;2919;48.630;9.000;2023-06-05T16:42:10;23.80;49.90
5786;DHT22;2919;48.630;9.000;2023-06-05T16:44:36;23.70;50.00
5786;DHT22;2919;48.630;9.000;2023-06-05T16:47:02;23.60;50.20
5786;DHT22;2919;48.630;9.000;2023-06-05T16:49:28;23.60;49.40
5786;DHT22;2919;48.630;9.000;2023-06-05T16:51:54;23.60;50.00
5786;DHT22;2919;48.630;9.000;2023-06-05T16:54:23;23.70;50.10